Aviation Digital Data Service (ADDS)

Output produced by METARs form (1308 UTC 24 May 2022)
found at http://www.aviationweather.gov/metar/data/
 
VTBD 241300Z 26007KT 9999 FEW020 29/24 Q1008 NOSIG
VTBD 241230Z 30006KT 9999 FEW020 SCT035 29/25 Q1008 NOSIG
VTBD 241200Z 30005KT 250V340 9999 FEW020 SCT030 BKN080 30/25 Q1007 NOSIG
VTBD 241130Z 29004KT 9999 FEW020 SCT030 BKN080 30/25 Q1007 RERA NOSIG
VTBD 241100Z 31017KT 4000 RA FEW020CB SCT030 BKN080 29/26 Q1006 TEMPO TL1120 1500 +TSRA
VTBD 241030Z 21008KT 9999 FEW020CB SCT030 32/24 Q1005 NOSIG
VTBD 241000Z 21009KT 9999 FEW020CB SCT030 32/25 Q1005 NOSIG
VTBD 240930Z 25007KT 210V290 9999 FEW020 SCT030 33/24 Q1005 NOSIG
VTBD 240900Z 20006KT 9999 FEW020 SCT030 33/25 Q1005 NOSIG
VTBD 240830Z 25009KT 200V290 9999 FEW020 SCT030 33/24 Q1006 NOSIG
VTBD 240800Z 22009KT 170V260 9999 FEW020 SCT030 33/24 Q1006 NOSIG
VTBD 240730Z 22011KT 170V240 9999 FEW020 SCT030 33/25 Q1006 NOSIG
VTBD 240700Z 20010KT 9999 FEW020 SCT030 32/24 Q1007 NOSIG
VTBD 240630Z 20010KT 9999 FEW020 SCT030 32/25 Q1007 NOSIG
VTBD 240600Z 22013KT 9999 FEW020 SCT030 32/25 Q1008 NOSIG
VTBD 240530Z 21014KT 9999 FEW020 SCT030 32/25 Q1008 NOSIG
VTBD 240500Z 21011KT 9999 FEW020 SCT030 32/25 Q1008 NOSIG
VTBD 240430Z 21010KT 9999 -RA FEW020 32/24 Q1008 NOSIG
VTBD 240400Z 21012KT 9999 FEW020 33/24 Q1008 NOSIG
VTBD 240330Z 20010KT 150V240 9999 FEW020 32/25 Q1008 NOSIG
VTBD 240300Z 18010KT 150V210 9999 FEW020 32/24 Q1008 NOSIG
VTBD 240230Z 20009KT 170V230 9999 FEW020 32/25 Q1008 NOSIG
VTBD 240200Z 21011KT 9999 FEW020 31/23 Q1008 NOSIG
VTBD 240130Z 20009KT 9999 FEW020 31/24 Q1008 NOSIG
VTBD 240100Z 20008KT 9999 FEW020 30/24 Q1008 NOSIG
VTBD 240030Z 17005KT 140V210 9999 FEW020 29/23 Q1007 NOSIG
VTBD 240000Z 19005KT 150V210 9999 FEW020 29/23 Q1007 NOSIG
VTBD 232330Z 18004KT 9999 FEW020 28/23 Q1006 NOSIG
VTBD 232300Z 18004KT 9999 FEW020 28/23 Q1005 NOSIG
VTBD 232230Z 21004KT 9999 FEW020 28/23 Q1005 NOSIG
VTBD 232200Z 21004KT 180V240 9999 FEW020 28/23 Q1006 NOSIG
VTBD 232130Z 21005KT 9999 FEW020 28/23 Q1005 NOSIG
VTBD 232100Z 21006KT 9999 FEW020 28/23 Q1005 NOSIG
VTBD 232030Z 25005KT 9999 FEW020 29/23 Q1005 NOSIG
VTBD 232000Z 25006KT 9999 FEW020 29/22 Q1006 NOSIG
VTBD 231930Z 25006KT 9999 FEW020 29/22 Q1005 NOSIG
VTBD 231900Z 23006KT 9999 FEW020 29/22 Q1005 NOSIG
VTBD 231830Z 26006KT 230V290 9999 FEW020 30/22 Q1006 NOSIG
VTBD 231800Z 27004KT 230V310 9999 FEW020 30/22 Q1006 NOSIG
VTBD 231730Z 27005KT 9999 FEW020 30/22 Q1006 NOSIG
VTBD 231700Z 26006KT 9999 FEW020 30/22 Q1006 NOSIG
VTBD 231630Z 26006KT 9999 FEW020 30/23 Q1006 NOSIG
VTBD 231600Z 00000KT 9999 FEW020 30/25 Q1006 NOSIG
VTBD 231530Z 20004KT 9999 FEW020 29/25 Q1006 NOSIG
VTBD 231500Z 19004KT 9999 FEW020 29/25 Q1006 NOSIG
VTBD 231430Z 19005KT 9999 SCT020 29/25 Q1006 NOSIG
VTBD 231400Z 18008KT 9999 SCT020 30/25 Q1005 NOSIG
VTBD 231330Z 19007KT 9999 SCT020 30/24 Q1005 NOSIG
VTBD 231300Z 20008KT 9999 SCT020 30/24 Q1004 NOSIG
VTBD 231230Z 21010KT 9999 SCT020 30/24 Q1004 NOSIG
TAF VTBD 241100Z 2412/2518 21008KT 9000 FEW020 SCT080 
     TEMPO 2412/2416 25010G25KT 4000 TSRA FEW018CB SCT035 BKN080